createdAt,value
2022-07-28T00:01:09.591Z,12.90
2022-07-28T00:03:36.447Z,13.00
2022-07-28T00:06:03.287Z,12.90
2022-07-28T00:08:30.099Z,12.90
2022-07-28T00:10:56.944Z,12.80
2022-07-28T00:13:23.852Z,12.80
2022-07-28T00:15:50.753Z,12.80
2022-07-28T00:18:17.966Z,12.80
2022-07-28T00:20:44.816Z,12.80
2022-07-28T00:23:11.684Z,12.70
2022-07-28T00:25:38.443Z,12.70
2022-07-28T00:28:05.415Z,12.70
2022-07-28T00:30:32.242Z,12.70
2022-07-28T00:32:59.151Z,12.70
2022-07-28T00:35:31.179Z,12.70
2022-07-28T00:37:58.919Z,12.70
2022-07-28T00:40:46.959Z,12.60
2022-07-28T00:43:14.451Z,12.70
2022-07-28T00:45:41.449Z,12.70
2022-07-28T00:48:08.407Z,12.60
2022-07-28T00:50:36.180Z,12.60
2022-07-28T00:53:03.049Z,12.60
2022-07-28T00:55:31.652Z,12.60
2022-07-28T00:57:58.650Z,12.50
2022-07-28T01:00:25.507Z,12.60
2022-07-28T01:02:52.981Z,12.50
2022-07-28T01:05:43.752Z,12.50
2022-07-28T01:08:15.055Z,12.40
2022-07-28T01:11:00.710Z,12.40
2022-07-28T01:13:41.721Z,12.40
2022-07-28T01:16:08.936Z,12.50
2022-07-28T01:18:49.552Z,12.40
2022-07-28T01:21:24.161Z,12.40
2022-07-28T01:24:05.816Z,12.40
2022-07-28T01:26:56.077Z,12.40
2022-07-28T01:29:37.762Z,12.40
2022-07-28T01:32:06.526Z,12.40
2022-07-28T01:34:50.505Z,12.40
2022-07-28T01:37:26.029Z,12.40
2022-07-28T01:39:57.380Z,12.30
2022-07-28T01:42:31.391Z,12.30
2022-07-28T01:45:01.104Z,12.30
2022-07-28T01:47:30.170Z,12.40
2022-07-28T01:50:02.415Z,12.40
2022-07-28T01:52:30.206Z,12.40
2022-07-28T01:54:59.172Z,12.40
2022-07-28T01:57:28.969Z,12.40
2022-07-28T01:59:57.688Z,12.30
2022-07-28T02:02:27.134Z,12.30
2022-07-28T02:05:00.217Z,12.30
2022-07-28T02:07:28.829Z,12.20
2022-07-28T02:09:57.923Z,12.20
2022-07-28T02:12:27.749Z,12.10
2022-07-28T02:14:56.604Z,12.10
2022-07-28T02:17:29.490Z,12.10
2022-07-28T02:19:57.971Z,12.10
2022-07-28T02:22:26.855Z,12.10
2022-07-28T02:24:55.324Z,12.00
2022-07-28T02:27:48.030Z,12.00
2022-07-28T02:30:19.371Z,12.00
2022-07-28T02:32:52.436Z,12.00
2022-07-28T02:35:37.432Z,12.10
2022-07-28T02:38:28.610Z,12.00
2022-07-28T02:40:59.684Z,12.00
2022-07-28T02:43:50.394Z,12.00
2022-07-28T02:46:20.213Z,12.00
2022-07-28T02:48:50.587Z,12.00
2022-07-28T02:51:21.748Z,12.00
2022-07-28T02:53:49.500Z,11.90
2022-07-28T02:56:18.248Z,11.90
2022-07-28T02:58:45.949Z,11.90
2022-07-28T03:01:13.835Z,11.90
2022-07-28T03:03:44.054Z,11.90
2022-07-28T03:06:11.221Z,11.80
2022-07-28T03:08:38.213Z,11.90
2022-07-28T03:11:10.109Z,11.80
2022-07-28T03:13:38.007Z,11.90
2022-07-28T03:16:05.444Z,11.80
2022-07-28T03:18:32.908Z,11.80
2022-07-28T03:21:00.534Z,11.80
2022-07-28T03:23:34.840Z,11.70
2022-07-28T03:26:09.490Z,11.80
2022-07-28T03:28:37.982Z,11.70
2022-07-28T03:31:09.631Z,11.70
2022-07-28T03:33:37.044Z,11.70
2022-07-28T03:36:08.798Z,11.60
2022-07-28T03:39:04.435Z,11.60
2022-07-28T03:41:33.636Z,11.60
2022-07-28T03:44:02.639Z,11.60
2022-07-28T03:46:29.896Z,11.50
2022-07-28T03:48:56.761Z,11.50
2022-07-28T03:51:25.620Z,11.50
2022-07-28T03:53:52.533Z,11.50
2022-07-28T03:58:46.775Z,11.50
2022-07-28T04:01:13.694Z,11.40
2022-07-28T04:03:43.615Z,11.40
2022-07-28T04:06:15.284Z,11.30
2022-07-28T04:08:43.965Z,11.30
2022-07-28T04:11:10.834Z,11.30
2022-07-28T04:13:37.871Z,11.30
2022-07-28T04:16:05.927Z,11.30
2022-07-28T04:18:33.104Z,11.40
2022-07-28T04:20:59.869Z,11.40
2022-07-28T04:23:26.785Z,11.40
2022-07-28T04:25:53.642Z,11.40
2022-07-28T04:28:20.494Z,11.50
2022-07-28T04:30:47.399Z,11.60
2022-07-28T04:33:14.315Z,11.70
2022-07-28T04:35:41.179Z,11.60
2022-07-28T04:38:08.467Z,11.60
2022-07-28T04:40:35.344Z,11.70
2022-07-28T04:43:04.192Z,11.80
2022-07-28T04:45:31.209Z,12.50
2022-07-28T04:47:59.244Z,13.00
2022-07-28T04:50:26.708Z,12.20
2022-07-28T04:52:54.400Z,12.00
2022-07-28T04:55:21.306Z,13.80
2022-07-28T04:57:48.286Z,14.10
2022-07-28T05:00:15.837Z,13.00
2022-07-28T05:02:44.790Z,12.30
2022-07-28T05:05:13.082Z,12.30
2022-07-28T05:07:40.525Z,12.80
2022-07-28T05:10:09.811Z,14.10
2022-07-28T05:12:36.932Z,13.80
2022-07-28T05:15:06.244Z,15.30
2022-07-28T05:17:33.098Z,16.90
2022-07-28T05:19:59.970Z,18.70
2022-07-28T05:22:26.989Z,20.10
2022-07-28T05:24:53.788Z,19.40
2022-07-28T05:27:20.634Z,20.80
2022-07-28T05:29:48.075Z,21.90
2022-07-28T05:32:17.324Z,22.60
2022-07-28T05:34:45.391Z,21.70
2022-07-28T05:37:12.382Z,23.10
2022-07-28T05:39:39.453Z,22.60
2022-07-28T05:42:06.681Z,20.80
2022-07-28T05:44:38.021Z,23.60
2022-07-28T05:47:06.303Z,21.00
2022-07-28T05:49:33.666Z,22.40
2022-07-28T05:52:00.445Z,23.30
2022-07-28T05:54:28.166Z,23.40
2022-07-28T05:56:55.040Z,23.40
2022-07-28T05:59:21.901Z,24.30
2022-07-28T06:01:48.787Z,24.60
2022-07-28T06:04:31.482Z,24.60
2022-07-28T06:09:25.744Z,24.30
2022-07-28T06:11:52.516Z,23.70
2022-07-28T06:14:19.546Z,24.60
2022-07-28T06:16:50.929Z,23.90
2022-07-28T06:19:19.150Z,22.60
2022-07-28T06:21:47.461Z,23.90
2022-07-28T06:24:14.701Z,24.10
2022-07-28T06:26:44.651Z,21.80
2022-07-28T06:29:12.523Z,23.30
2022-07-28T06:31:40.055Z,23.70
2022-07-28T06:34:07.040Z,23.90
2022-07-28T06:36:34.019Z,24.60
2022-07-28T06:39:00.895Z,24.30
2022-07-28T06:41:28.133Z,23.60
2022-07-28T06:43:54.922Z,24.30
2022-07-28T06:46:22.226Z,22.60
2022-07-28T06:48:49.246Z,23.70
2022-07-28T06:51:19.169Z,22.90
2022-07-28T06:53:48.408Z,22.10
2022-07-28T06:56:16.120Z,22.90
2022-07-28T06:58:47.000Z,24.30
2022-07-28T07:01:15.350Z,23.10
2022-07-28T07:03:43.644Z,22.90
2022-07-28T07:06:11.329Z,21.70
2022-07-28T07:08:38.633Z,19.10
2022-07-28T07:11:05.613Z,18.90
2022-07-28T07:13:33.120Z,19.50
2022-07-28T07:16:00.451Z,19.80
2022-07-28T07:18:27.466Z,20.50
2022-07-28T07:20:56.705Z,19.50
2022-07-28T07:23:23.580Z,20.20
2022-07-28T07:25:50.431Z,21.00
2022-07-28T07:28:17.241Z,21.40
2022-07-28T07:33:25.117Z,21.10
2022-07-28T07:35:53.245Z,20.80
2022-07-28T07:38:20.260Z,21.90
2022-07-28T07:40:47.208Z,22.50
2022-07-28T07:43:14.069Z,21.90
2022-07-28T07:45:41.289Z,21.50
2022-07-28T07:48:08.174Z,21.40
2022-07-28T07:50:35.368Z,21.80
2022-07-28T07:53:02.266Z,21.70
2022-07-28T07:55:34.325Z,20.50
2022-07-28T07:58:05.068Z,21.30
2022-07-28T08:00:32.056Z,20.90
2022-07-28T08:03:00.318Z,21.60
2022-07-28T08:05:34.797Z,21.50
2022-07-28T08:08:05.223Z,21.30
2022-07-28T08:10:33.122Z,20.80
2022-07-28T08:13:00.099Z,21.10
2022-07-28T08:15:27.043Z,21.20
2022-07-28T08:17:53.844Z,21.70
2022-07-28T08:20:20.799Z,22.20
2022-07-28T08:22:52.059Z,21.30
2022-07-28T08:25:19.507Z,21.70
2022-07-28T08:27:46.589Z,21.90
2022-07-28T08:30:23.152Z,20.80
2022-07-28T08:32:56.909Z,20.40
2022-07-28T08:35:33.410Z,21.00
2022-07-28T08:38:01.611Z,19.90
2022-07-28T08:40:32.455Z,20.30
2022-07-28T08:43:02.490Z,19.00
2022-07-28T08:45:35.442Z,19.60
2022-07-28T08:48:08.714Z,19.50
2022-07-28T08:50:37.916Z,19.90
2022-07-28T08:53:06.343Z,20.30
2022-07-28T08:55:35.733Z,20.30
2022-07-28T08:58:04.287Z,20.30
2022-07-28T09:00:31.417Z,20.30
2022-07-28T09:02:59.970Z,20.40
2022-07-28T09:05:27.658Z,20.60
2022-07-28T09:07:55.610Z,20.50
2022-07-28T09:10:23.864Z,20.10
2022-07-28T09:12:51.281Z,20.40
2022-07-28T09:15:18.542Z,20.60
2022-07-28T09:17:45.412Z,21.00
2022-07-28T09:20:12.889Z,21.30
2022-07-28T09:23:01.185Z,21.10
2022-07-28T09:25:29.613Z,20.30
2022-07-28T09:27:59.135Z,20.70
2022-07-28T09:30:31.414Z,22.00
2022-07-28T09:33:43.315Z,21.10
2022-07-28T09:36:03.290Z,21.60
2022-07-28T09:38:40.806Z,22.70
2022-07-28T09:41:07.963Z,22.30
2022-07-28T09:43:43.605Z,22.00
2022-07-28T09:46:12.703Z,21.80
2022-07-28T09:48:59.656Z,21.20
2022-07-28T09:51:28.805Z,21.50
2022-07-28T09:54:08.594Z,20.90
2022-07-28T09:56:36.534Z,21.00
2022-07-28T09:59:03.960Z,22.10
2022-07-28T10:01:36.531Z,22.70
2022-07-28T10:04:04.617Z,21.40
2022-07-28T10:06:33.388Z,21.60
2022-07-28T10:09:02.529Z,21.80
2022-07-28T10:11:31.362Z,22.00
2022-07-28T10:14:02.696Z,22.50
2022-07-28T10:16:41.929Z,23.00
2022-07-28T10:19:08.863Z,22.30
2022-07-28T10:21:44.409Z,22.90
2022-07-28T10:24:20.937Z,22.10
2022-07-28T10:26:48.580Z,21.90
2022-07-28T10:29:21.407Z,21.70
2022-07-28T10:31:58.147Z,21.80
2022-07-28T10:34:27.583Z,21.50
2022-07-28T10:37:01.197Z,22.70
2022-07-28T10:39:38.241Z,22.90
2022-07-28T10:42:08.817Z,21.90
2022-07-28T10:44:37.024Z,21.60
2022-07-28T10:47:18.294Z,21.40
2022-07-28T10:49:49.979Z,21.30
2022-07-28T10:55:21.501Z,22.60
2022-07-28T10:58:26.056Z,22.40
2022-07-28T11:00:57.926Z,22.00
2022-07-28T11:03:42.883Z,21.70
2022-07-28T11:06:39.811Z,21.80
2022-07-28T11:09:18.673Z,21.80
2022-07-28T11:11:46.282Z,22.10
2022-07-28T11:14:29.676Z,21.90
2022-07-28T11:17:05.419Z,21.10
2022-07-28T11:20:06.851Z,21.60
2022-07-28T11:22:34.926Z,21.60
2022-07-28T11:25:18.869Z,21.30
2022-07-28T11:27:51.880Z,21.70
2022-07-28T11:30:19.311Z,21.40
2022-07-28T11:32:55.016Z,21.30
2022-07-28T11:35:23.289Z,21.80
2022-07-28T11:38:02.508Z,21.60
2022-07-28T11:40:38.335Z,21.30
2022-07-28T11:43:36.552Z,21.20
2022-07-28T11:46:08.205Z,21.00
2022-07-28T11:48:37.706Z,21.30
2022-07-28T11:51:04.588Z,21.20
2022-07-28T11:53:44.245Z,21.50
2022-07-28T11:56:13.749Z,21.40
2022-07-28T11:58:41.636Z,21.10
2022-07-28T12:01:20.044Z,21.20
2022-07-28T12:03:59.246Z,21.60
2022-07-28T12:06:37.721Z,21.50
2022-07-28T12:09:09.277Z,21.90
2022-07-28T12:11:38.459Z,21.60
2022-07-28T12:14:06.453Z,21.80
2022-07-28T12:16:35.906Z,21.60
2022-07-28T12:19:04.757Z,21.50
2022-07-28T12:21:52.893Z,22.10
2022-07-28T12:24:29.614Z,22.60
2022-07-28T12:26:57.651Z,22.00
2022-07-28T12:29:32.274Z,22.00
2022-07-28T12:32:09.088Z,21.70
2022-07-28T12:34:37.749Z,21.90
2022-07-28T12:37:09.622Z,21.80
2022-07-28T12:39:39.659Z,21.70
2022-07-28T12:42:09.221Z,21.80
2022-07-28T12:44:44.131Z,21.90
2022-07-28T12:47:13.192Z,22.20
2022-07-28T12:49:42.590Z,22.20
2022-07-28T12:52:21.874Z,22.00
2022-07-28T12:54:55.188Z,22.10
2022-07-28T12:57:50.777Z,22.20
2022-07-28T13:00:23.912Z,22.30
2022-07-28T13:02:56.152Z,22.20
2022-07-28T13:05:57.014Z,22.10
2022-07-28T13:08:27.189Z,22.00
2022-07-28T13:10:57.374Z,22.20
2022-07-28T13:13:26.126Z,22.20
2022-07-28T13:16:16.498Z,22.30
2022-07-28T13:19:04.295Z,22.00
2022-07-28T13:21:56.643Z,21.80
2022-07-28T13:24:24.453Z,21.80
2022-07-28T13:26:51.398Z,22.00
2022-07-28T13:29:18.296Z,22.10
2022-07-28T13:31:45.327Z,22.30
2022-07-28T13:34:12.595Z,22.30
2022-07-28T13:36:39.891Z,22.50
2022-07-28T13:39:07.850Z,22.50
2022-07-28T13:41:56.597Z,22.40
2022-07-28T13:44:21.555Z,22.60
2022-07-28T13:46:50.166Z,22.70
2022-07-28T13:49:17.307Z,23.10
2022-07-28T13:51:51.201Z,22.90
2022-07-28T13:54:19.381Z,22.80
2022-07-28T13:56:47.838Z,22.70
2022-07-28T13:59:14.884Z,22.60
2022-07-28T14:01:42.330Z,22.80
2022-07-28T14:04:15.029Z,23.20
2022-07-28T14:06:45.203Z,23.10
2022-07-28T14:09:17.991Z,23.10
2022-07-28T14:11:50.064Z,23.30
2022-07-28T14:14:24.187Z,23.20
2022-07-28T14:16:54.243Z,23.10
2022-07-28T14:19:39.523Z,23.00
2022-07-28T14:22:13.847Z,22.80
2022-07-28T14:24:43.852Z,22.90
2022-07-28T14:27:11.446Z,22.90
2022-07-28T14:29:38.989Z,23.00
2022-07-28T14:32:06.695Z,23.00
2022-07-28T14:34:34.520Z,23.10
2022-07-28T14:37:03.411Z,23.10
2022-07-28T14:39:35.329Z,23.00
2022-07-28T14:42:02.138Z,23.00
2022-07-28T14:44:28.969Z,23.00
2022-07-28T14:46:55.853Z,23.20
2022-07-28T14:49:22.818Z,23.20
2022-07-28T14:51:51.067Z,23.00
2022-07-28T14:54:18.629Z,23.00
2022-07-28T14:56:45.780Z,23.10
2022-07-28T14:59:12.650Z,23.10
2022-07-28T15:01:39.562Z,22.90
2022-07-28T15:04:06.443Z,22.90
2022-07-28T15:06:33.299Z,23.00
2022-07-28T15:09:02.016Z,23.00
2022-07-28T15:11:28.832Z,23.10
2022-07-28T15:13:55.633Z,22.80
2022-07-28T15:16:22.571Z,22.90
2022-07-28T15:18:51.775Z,23.20
2022-07-28T15:21:18.834Z,23.10
2022-07-28T15:23:45.827Z,23.20
2022-07-28T15:26:12.829Z,23.00
2022-07-28T15:28:39.893Z,22.80
2022-07-28T15:31:08.410Z,23.10
2022-07-28T15:33:45.368Z,22.90
2022-07-28T15:36:14.898Z,23.30
2022-07-28T15:38:41.882Z,23.20
2022-07-28T15:41:15.035Z,23.20
2022-07-28T15:43:42.398Z,23.30
2022-07-28T15:46:11.910Z,23.40
2022-07-28T15:48:41.395Z,23.40
2022-07-28T15:51:09.429Z,23.60
2022-07-28T15:53:37.310Z,23.10
2022-07-28T15:56:04.625Z,23.20
2022-07-28T15:58:31.472Z,23.30
2022-07-28T16:01:01.054Z,23.40
2022-07-28T16:03:29.786Z,23.10
2022-07-28T16:05:57.169Z,23.10
2022-07-28T16:08:23.963Z,23.30
2022-07-28T16:10:53.121Z,23.50
2022-07-28T16:13:36.078Z,23.50
2022-07-28T16:16:14.428Z,23.30
2022-07-28T16:18:43.235Z,23.60
2022-07-28T16:21:11.260Z,23.30
2022-07-28T16:23:38.383Z,23.30
2022-07-28T16:26:07.978Z,23.40
2022-07-28T16:28:35.791Z,23.40
2022-07-28T16:31:02.672Z,23.20
2022-07-28T16:33:33.731Z,22.80
2022-07-28T16:36:02.101Z,22.80
2022-07-28T16:38:28.928Z,22.80
2022-07-28T16:40:57.221Z,22.90
2022-07-28T16:43:24.573Z,22.80
2022-07-28T16:45:51.515Z,22.80
2022-07-28T16:48:18.841Z,22.90
2022-07-28T16:50:46.322Z,23.00
2022-07-28T16:53:13.946Z,22.80
2022-07-28T16:55:42.120Z,22.70
2022-07-28T16:58:08.982Z,22.80
2022-07-28T17:00:35.989Z,22.70
2022-07-28T17:03:02.786Z,22.70
2022-07-28T17:05:29.669Z,22.70
2022-07-28T17:07:56.518Z,22.70
2022-07-28T17:10:27.364Z,22.60
2022-07-28T17:12:54.984Z,22.70
2022-07-28T17:15:23.029Z,22.70
2022-07-28T17:17:51.233Z,22.60
2022-07-28T17:20:18.946Z,22.70
2022-07-28T17:22:46.368Z,22.70
2022-07-28T17:25:35.604Z,22.70
2022-07-28T17:28:00.387Z,22.90
2022-07-28T17:30:29.852Z,22.90
2022-07-28T17:32:59.252Z,22.90
2022-07-28T17:35:34.485Z,22.70
2022-07-28T17:38:03.713Z,22.60
2022-07-28T17:40:31.035Z,22.50
2022-07-28T17:42:57.869Z,22.60
2022-07-28T17:45:24.950Z,22.60
2022-07-28T17:47:52.421Z,22.60
2022-07-28T17:50:20.192Z,22.60
2022-07-28T17:52:47.351Z,22.50
2022-07-28T17:55:57.572Z,22.40
2022-07-28T17:58:26.364Z,22.40
2022-07-28T18:01:10.841Z,22.40
2022-07-28T18:03:56.471Z,22.20
2022-07-28T18:06:28.868Z,22.10
2022-07-28T18:08:55.716Z,22.10
2022-07-28T18:11:24.467Z,22.10
2022-07-28T18:14:15.694Z,22.00
2022-07-28T18:16:42.502Z,22.00
2022-07-28T18:19:09.307Z,21.90
2022-07-28T18:21:36.359Z,21.80
2022-07-28T18:24:03.494Z,21.80
2022-07-28T18:26:30.806Z,21.80
2022-07-28T18:28:57.977Z,21.70
2022-07-28T18:31:25.360Z,21.70
2022-07-28T18:33:52.697Z,21.60
2022-07-28T18:36:19.647Z,21.60
2022-07-28T18:38:49.981Z,21.50
2022-07-28T18:41:17.865Z,21.50
2022-07-28T18:43:44.694Z,21.50
2022-07-28T18:46:11.574Z,21.40
2022-07-28T18:48:38.459Z,21.40
2022-07-28T18:51:05.711Z,21.30
2022-07-28T18:53:32.605Z,21.30
2022-07-28T18:55:59.564Z,21.10
2022-07-28T18:58:26.439Z,21.20
2022-07-28T19:00:53.398Z,21.10
2022-07-28T19:03:20.339Z,21.10
2022-07-28T19:05:47.390Z,21.00
2022-07-28T19:08:14.321Z,20.90
2022-07-28T19:10:41.210Z,20.80
2022-07-28T19:13:12.291Z,20.80
2022-07-28T19:15:41.146Z,20.70
2022-07-28T19:18:10.346Z,20.70
2022-07-28T19:20:44.940Z,20.60
2022-07-28T19:23:11.901Z,20.50
2022-07-28T19:25:41.917Z,20.50
2022-07-28T19:28:08.812Z,20.50
2022-07-28T19:30:36.083Z,20.40
2022-07-28T19:33:03.981Z,20.40
2022-07-28T19:35:34.134Z,20.30
2022-07-28T19:38:02.647Z,20.30
2022-07-28T19:40:31.999Z,20.30
2022-07-28T19:43:00.042Z,20.30
2022-07-28T19:45:27.629Z,20.30
2022-07-28T19:47:54.860Z,20.30
2022-07-28T19:50:23.169Z,20.20
2022-07-28T19:52:50.125Z,20.20
2022-07-28T19:55:17.890Z,20.20
2022-07-28T19:57:45.903Z,20.20
2022-07-28T20:00:13.723Z,20.10
2022-07-28T20:02:41.301Z,20.10
2022-07-28T20:05:09.966Z,20.10
2022-07-28T20:07:36.988Z,20.00
2022-07-28T20:10:05.147Z,20.00
2022-07-28T20:12:36.316Z,19.90
2022-07-28T20:15:05.276Z,19.90
2022-07-28T20:17:38.574Z,19.80
2022-07-28T20:20:08.375Z,19.80
2022-07-28T20:22:35.456Z,19.70
2022-07-28T20:25:02.312Z,19.70
2022-07-28T20:27:29.146Z,19.70
2022-07-28T20:29:56.083Z,19.60
2022-07-28T20:32:22.874Z,19.50
2022-07-28T20:34:51.411Z,19.50
2022-07-28T20:37:35.833Z,19.40
2022-07-28T20:40:05.274Z,19.30
2022-07-28T20:42:32.216Z,19.30
2022-07-28T20:44:59.008Z,19.30
2022-07-28T20:47:27.873Z,19.20
2022-07-28T20:49:55.354Z,19.20
2022-07-28T20:52:22.365Z,19.10
2022-07-28T20:54:53.796Z,19.10
2022-07-28T20:57:21.877Z,19.10
2022-07-28T20:59:51.322Z,19.00
2022-07-28T21:02:22.862Z,18.90
2022-07-28T21:04:50.740Z,19.00
2022-07-28T21:07:59.970Z,19.00
2022-07-28T21:10:10.135Z,19.00
2022-07-28T21:12:37.678Z,18.90
2022-07-28T21:15:08.957Z,18.90
2022-07-28T21:17:36.488Z,18.90
2022-07-28T21:20:05.317Z,18.90
2022-07-28T21:22:32.324Z,18.90
2022-07-28T21:24:59.259Z,18.90
2022-07-28T21:27:26.126Z,18.90
2022-07-28T21:32:19.106Z,18.80
2022-07-28T21:34:46.014Z,18.80
2022-07-28T21:37:13.703Z,18.80
2022-07-28T21:39:40.565Z,18.70
2022-07-28T21:42:08.713Z,18.80
2022-07-28T21:44:36.497Z,18.70
2022-07-28T21:47:03.858Z,18.80
2022-07-28T21:49:31.480Z,18.70
2022-07-28T21:51:58.520Z,18.70
2022-07-28T21:54:25.397Z,18.70
2022-07-28T21:56:52.553Z,18.70
2022-07-28T21:59:19.438Z,18.60
2022-07-28T22:01:46.393Z,18.60
2022-07-28T22:04:13.752Z,18.60
2022-07-28T22:06:40.997Z,18.50
2022-07-28T22:09:13.833Z,18.50
2022-07-28T22:11:40.691Z,18.50
2022-07-28T22:14:07.519Z,18.50
2022-07-28T22:16:34.507Z,18.50
2022-07-28T22:19:01.458Z,18.40
2022-07-28T22:21:28.400Z,18.50
2022-07-28T22:23:55.407Z,18.40
2022-07-28T22:26:22.288Z,18.40
2022-07-28T22:28:49.106Z,18.40
2022-07-28T22:31:16.219Z,18.30
2022-07-28T22:33:43.106Z,18.30
2022-07-28T22:36:09.978Z,18.30
2022-07-28T22:38:37.023Z,18.20
2022-07-28T22:41:04.146Z,18.20
2022-07-28T22:43:34.091Z,18.10
2022-07-28T22:46:01.339Z,18.10
2022-07-28T22:48:28.423Z,18.10
2022-07-28T22:50:55.664Z,18.00
2022-07-28T22:53:22.611Z,18.00
2022-07-28T22:55:49.560Z,18.00
2022-07-28T22:58:16.638Z,18.00
2022-07-28T23:00:43.838Z,18.00
2022-07-28T23:03:12.957Z,18.00
2022-07-28T23:05:40.487Z,18.00
2022-07-28T23:08:07.408Z,17.90
2022-07-28T23:10:34.665Z,17.90
2022-07-28T23:13:02.119Z,17.80
2022-07-28T23:15:40.657Z,17.80
2022-07-28T23:18:10.562Z,17.80
2022-07-28T23:20:38.799Z,17.80
2022-07-28T23:23:07.152Z,17.80
2022-07-28T23:25:36.878Z,17.80
2022-07-28T23:28:03.970Z,17.80
2022-07-28T23:30:30.807Z,17.70
2022-07-28T23:32:57.771Z,17.70
2022-07-28T23:35:25.286Z,17.70
2022-07-28T23:37:52.098Z,17.70
2022-07-28T23:40:18.923Z,17.70
2022-07-28T23:42:45.721Z,17.70
2022-07-28T23:45:12.667Z,17.80
2022-07-28T23:47:39.462Z,17.80
2022-07-28T23:50:07.055Z,17.80
2022-07-28T23:52:33.919Z,17.80
2022-07-28T23:55:00.848Z,17.80
2022-07-28T23:57:31.068Z,17.80
